ROMMA est une association bénévole à but non lucratif. Votre soutien est indispensable : ADHERER à ROMMA ou FAIRE un DON

Val-d'Isère - (73, Savoie)

Haute-Tarentaise (1850 m)   Longitude: 6° 58' 52'' E   Latitude: 45° 26' 53'' N Station partenaire n°93
 

Détail journalier du     <<     >>

Température Precipitation Humidité Pression Vent Dir Rafale Dir. rafale Ensol.
Heure (°C) (mm) (%) (hPa) (km/h) (km/h) (min)
01:00 10.709310191NNE6NNE0
02:00 9.9093101802NNE0
03:00 9.409410171NNE5NNE0
04:00 9.009310171NNE6NNE0
05:00 8.6093101706NNE0
06:00 8.809310172NNE11NNE0
07:00 9.209310171NNE5NNE0
08:00 10.109310181NNE5NNE10
09:00 13.208010182NNE6NNE60
10:00 15.806610183NNE8NNE60
11:00 17.905410182NNE8NNE60
12:00 18.6050101810NNE21NNE60
13:00 19.8049101812NNE21NNE60
14:00 20.60.247101716NNE26NNE60
15:00 19.9050101715NNE31NNE30
16:00 20.6046101711NNE24NNE30
17:00 20.0050101711NNE26NNE20
18:00 20.505110168NNE19NNE30
19:00 19.605210165NNE18NNE20
20:00 18.505710164NNE19NNE0
21:00 16.306610173NNE11NNE0
22:00
23:00
minuit

Graphique du 11-08-2020

 

Serveur OMMA